Time;durP1;ratioP1;P1;durP2;ratioP2;P2;SDS_P1;SDS_P2;PMS_P1;PMS_P2;Temp;Humidity;BMP_temperature;BMP_pressure;BME280_temperature;BME280_humidity;BME280_pressure;Samples;Min_cycle;Max_cycle;Signal;HPM_P1;HPM_P2
2023/02/22 00:02:09;;;;;;;;;;;;;;;5.31;80.56;100436.92;1988534;72;20110;-38
2023/02/22 00:04:23;;;;;;;;;;;;;;;5.33;80.42;100448.61;1990579;72;20110;-38
2023/02/22 00:06:52;;;;;;;;;;;;;;;5.33;80.43;100449.48;1931018;74;20144;-36
2023/02/22 00:09:21;;;;;;;;;;;;;;;5.31;80.41;100444.75;1931056;74;20173;-38
2023/02/22 00:11:49;;;;;;;;;;;;;;;5.30;80.38;100450.84;1944677;73;20408;-38
2023/02/22 00:14:19;;;;;;;;;;;;;;;5.28;80.38;100452.64;1965054;73;20142;-36
2023/02/22 00:16:46;;;;;;;;;;;;;;;5.24;80.44;100453.61;1965295;73;20100;-38
2023/02/22 00:19:14;;;;;;;;;;;;;;;5.20;80.49;100458.45;1965156;73;20139;-39
2023/02/22 00:21:43;;;;;;;;;;;;;;;5.17;80.43;100465.06;1965090;73;20116;-39
2023/02/22 00:24:21;;;;;;;;;;;;;;;5.15;80.43;100463.78;1965377;73;20390;-39
2023/02/22 00:26:46;;;;;;;;;;;;;;;5.13;80.48;100458.20;1963311;73;20111;-39
2023/02/22 00:29:14;;;;;;;;;;;;;;;5.10;80.50;100460.86;1965069;73;20116;-39
2023/02/22 00:31:41;;;;;;;;;;;;;;;5.08;80.56;100460.04;1965150;73;20115;-40
2023/02/22 00:34:13;;;;;;;;;;;;;;;5.03;80.59;100451.87;1964940;73;20149;-41
2023/02/22 00:36:48;;;;;;;;;;;;;;;5.02;80.63;100451.44;1965065;73;20103;-39
2023/02/22 00:39:16;;;;;;;;;;;;;;;5.00;80.65;100449.77;1965260;73;20374;-39
2023/02/22 00:41:44;;;;;;;;;;;;;;;4.98;80.68;100444.57;1965280;73;20124;-40
2023/02/22 00:44:12;;;;;;;;;;;;;;;4.96;80.70;100446.36;1965157;73;20146;-40
2023/02/22 00:46:39;;;;;;;;;;;;;;;4.97;80.75;100445.45;1964933;73;20116;-41
2023/02/22 00:49:07;;;;;;;;;;;;;;;4.97;80.67;100461.10;1965157;73;20146;-40
2023/02/22 00:51:35;;;;;;;;;;;;;;;4.95;80.75;100448.53;1965086;73;20138;-38
2023/02/22 00:54:04;;;;;;;;;;;;;;;4.92;80.73;100453.81;1965183;73;20116;-39
2023/02/22 00:56:35;;;;;;;;;;;;;;;4.89;80.73;100460.41;1965044;73;20127;-39
2023/02/22 00:59:03;;;;;;;;;;;;;;;4.87;80.74;100451.77;1965108;73;20116;-42
2023/02/22 01:01:31;;;;;;;;;;;;;;;4.84;80.77;100454.42;1959790;73;20186;-39
2023/02/22 01:03:59;;;;;;;;;;;;;;;4.82;80.78;100457.52;1955142;73;20144;-40
2023/02/22 01:06:28;;;;;;;;;;;;;;;4.81;80.81;100461.00;1955199;73;20100;-40
2023/02/22 01:08:57;;;;;;;;;;;;;;;4.84;80.76;100471.37;1952633;73;20406;-39
2023/02/22 01:11:25;;;;;;;;;;;;;;;4.84;80.71;100459.64;1953619;73;20371;-40
2023/02/22 01:13:53;;;;;;;;;;;;;;;4.86;80.60;100468.75;1953372;73;20116;-40
2023/02/22 01:16:21;;;;;;;;;;;;;;;4.84;80.47;100468.77;1953586;73;20182;-38
2023/02/22 01:18:49;;;;;;;;;;;;;;;4.83;80.44;100473.56;1953389;73;20108;-38
2023/02/22 01:21:17;;;;;;;;;;;;;;;4.80;80.44;100467.12;1953578;73;20116;-39
2023/02/22 01:23:45;;;;;;;;;;;;;;;4.77;80.41;100464.56;1953536;73;20100;-39
2023/02/22 01:26:13;;;;;;;;;;;;;;;4.72;80.47;100472.91;1953462;73;20117;-41
2023/02/22 01:28:41;;;;;;;;;;;;;;;4.67;80.50;100466.92;1953468;73;20178;-40
2023/02/22 01:31:09;;;;;;;;;;;;;;;4.61;80.60;100463.56;1953368;73;20144;-40
2023/02/22 01:33:38;;;;;;;;;;;;;;;4.58;80.68;100459.70;1953445;73;20108;-40
2023/02/22 01:36:10;;;;;;;;;;;;;;;4.55;80.72;100458.44;1953474;73;20146;-39
2023/02/22 01:38:38;;;;;;;;;;;;;;;4.54;80.80;100463.71;1953493;73;20108;-38
2023/02/22 01:41:06;;;;;;;;;;;;;;;4.52;80.87;100454.61;1953434;73;20112;-39
2023/02/22 01:43:33;;;;;;;;;;;;;;;4.52;80.89;100459.82;1925926;73;20146;-38
2023/02/22 01:46:02;;;;;;;;;;;;;;;4.51;80.98;100458.09;1953501;73;20148;-38
2023/02/22 01:48:41;;;;;;;;;;;;;;;4.49;80.95;100461.17;1953494;73;20144;-38
2023/02/22 01:51:16;;;;;;;;;;;;;;;4.50;81.02;100460.30;1953461;73;20113;-40
2023/02/22 01:53:49;;;;;;;;;;;;;;;4.51;81.03;100467.22;1921289;75;20143;-38
2023/02/22 01:56:17;;;;;;;;;;;;;;;4.53;81.05;100471.95;1921397;75;20115;-38
2023/02/22 01:58:46;;;;;;;;;;;;;;;4.53;81.03;100468.05;1921304;75;20118;-38
2023/02/22 02:01:15;;;;;;;;;;;;;;;4.53;81.03;100481.08;1921252;74;20148;-39
2023/02/22 02:03:44;;;;;;;;;;;;;;;4.51;81.03;100473.73;1950234;73;20139;-38
2023/02/22 02:06:13;;;;;;;;;;;;;;;4.52;81.07;100485.90;1953570;73;20100;-38
2023/02/22 02:08:54;;;;;;;;;;;;;;;4.55;81.08;100492.34;1953488;73;20171;-38
2023/02/22 02:11:28;;;;;;;;;;;;;;;4.55;80.96;100496.70;1953468;73;20112;-38
2023/02/22 02:13:54;;;;;;;;;;;;;;;4.58;80.94;100494.90;1952635;73;20386;-38
2023/02/22 02:16:23;;;;;;;;;;;;;;;4.59;80.97;100499.24;1953516;73;20374;-39
2023/02/22 02:18:51;;;;;;;;;;;;;;;4.59;80.92;100500.55;1953582;73;20150;-38
2023/02/22 02:21:23;;;;;;;;;;;;;;;4.60;80.89;100511.37;1953618;73;20101;-37
2023/02/22 02:23:53;;;;;;;;;;;;;;;4.59;80.83;100508.37;1951164;73;20120;-38
2023/02/22 02:26:39;;;;;;;;;;;;;;;4.58;80.80;100511.85;1951202;73;20116;-39
2023/02/22 02:29:08;;;;;;;;;;;;;;;4.55;80.79;100513.20;1954041;73;20191;-39
2023/02/22 02:31:40;;;;;;;;;;;;;;;4.54;80.78;100519.77;1955256;73;20109;-39
2023/02/22 02:34:09;;;;;;;;;;;;;;;4.53;80.76;100517.59;1955229;73;20112;-39
2023/02/22 02:36:56;;;;;;;;;;;;;;;4.51;80.73;100508.08;1953665;72;20150;-38
2023/02/22 02:39:25;;;;;;;;;;;;;;;4.49;80.76;100509.41;1955176;73;20143;-38
2023/02/22 02:41:52;;;;;;;;;;;;;;;4.46;80.79;100519.88;1953213;73;20104;-39
2023/02/22 02:44:22;;;;;;;;;;;;;;;4.40;80.78;100518.70;1952974;73;20159;-38
2023/02/22 02:47:02;;;;;;;;;;;;;;;4.40;80.84;100526.52;1952933;73;20124;-39
2023/02/22 02:49:31;;;;;;;;;;;;;;;4.39;80.92;100523.48;1953061;73;20155;-38
2023/02/22 02:52:00;;;;;;;;;;;;;;;4.40;80.94;100531.73;1929897;73;20195;-38
2023/02/22 02:54:29;;;;;;;;;;;;;;;4.40;80.92;100533.03;1953650;73;20112;-40
2023/02/22 02:56:57;;;;;;;;;;;;;;;4.39;80.93;100537.81;1953568;73;20104;-41
2023/02/22 02:59:30;;;;;;;;;;;;;;;4.40;80.94;100534.34;1953606;73;20120;-40
2023/02/22 03:01:59;;;;;;;;;;;;;;;4.40;80.96;100534.34;1953453;73;20383;-39
2023/02/22 03:04:31;;;;;;;;;;;;;;;4.40;81.04;100538.25;1952072;73;20199;-39
2023/02/22 03:07:06;;;;;;;;;;;;;;;4.40;81.02;100543.46;1951701;73;20116;-39
2023/02/22 03:09:57;;;;;;;;;;;;;;;4.38;80.98;100542.63;1952125;73;20116;-39
2023/02/22 03:12:26;;;;;;;;;;;;;;;4.37;80.98;100544.80;1953581;73;20108;-38
2023/02/22 03:15:01;;;;;;;;;;;;;;;4.36;81.08;100547.86;1952947;73;20374;-37
2023/02/22 03:17:35;;;;;;;;;;;;;;;4.37;81.04;100547.41;1952986;73;20120;-38
2023/02/22 03:20:05;;;;;;;;;;;;;;;4.38;81.04;100546.54;1952911;73;20104;-38
2023/02/22 03:22:34;;;;;;;;;;;;;;;4.43;81.09;100552.55;1948939;73;20108;-38
2023/02/22 03:25:06;;;;;;;;;;;;;;;4.48;81.08;100562.87;1952417;73;20117;-39
2023/02/22 03:27:43;;;;;;;;;;;;;;;4.53;81.02;100571.04;1953164;73;20187;-40
2023/02/22 03:30:13;;;;;;;;;;;;;;;4.56;80.99;100568.39;1952909;73;20128;-40
2023/02/22 03:32:42;;;;;;;;;;;;;;;4.61;80.90;100575.70;1952781;73;20160;-40
2023/02/22 03:35:12;;;;;;;;;;;;;;;4.67;80.92;100581.67;1952687;73;20143;-38
2023/02/22 03:37:41;;;;;;;;;;;;;;;4.70;80.80;100581.62;1952708;73;20142;-44
2023/02/22 03:40:13;;;;;;;;;;;;;;;4.71;80.83;100584.22;1953789;73;20116;-41
2023/02/22 03:42:46;;;;;;;;;;;;;;;4.71;80.76;100577.70;1954987;73;20177;-42
2023/02/22 03:45:16;;;;;;;;;;;;;;;4.70;80.68;100581.62;1954331;73;20127;-42
2023/02/22 03:47:45;;;;;;;;;;;;;;;4.70;80.63;100586.84;1955169;73;20447;-42
2023/02/22 03:50:25;;;;;;;;;;;;;;;4.69;80.55;100581.23;1953930;72;20382;-42
2023/02/22 03:52:53;;;;;;;;;;;;;;;4.68;80.52;100589.48;1953028;73;20109;-42
2023/02/22 03:55:22;;;;;;;;;;;;;;;4.68;80.51;100593.84;1952431;73;20119;-41
2023/02/22 03:57:51;;;;;;;;;;;;;;;4.66;80.38;100590.41;1953601;73;20116;-42
2023/02/22 04:00:22;;;;;;;;;;;;;;;4.62;80.41;100597.41;1953420;73;20159;-42
2023/02/22 04:02:50;;;;;;;;;;;;;;;4.59;80.45;100593.13;1953349;73;20203;-41
2023/02/22 04:05:19;;;;;;;;;;;;;;;4.57;80.43;100597.92;1953523;73;20394;-41
2023/02/22 04:07:48;;;;;;;;;;;;;;;4.56;80.30;100607.96;1953619;73;20390;-40
2023/02/22 04:10:16;;;;;;;;;;;;;;;4.54;80.31;100605.38;1953680;73;20147;-40
2023/02/22 04:12:44;;;;;;;;;;;;;;;4.52;80.26;100610.17;1953540;73;20104;-39
2023/02/22 04:15:14;;;;;;;;;;;;;;;4.53;80.11;100608.84;1958006;73;20147;-40
2023/02/22 04:17:43;;;;;;;;;;;;;;;4.51;80.15;100610.63;1965381;73;20099;-40
2023/02/22 04:20:12;;;;;;;;;;;;;;;4.48;80.14;100619.79;1964945;73;20170;-40
2023/02/22 04:22:41;;;;;;;;;;;;;;;4.40;80.16;100612.09;1964075;73;20187;-41
2023/02/22 04:25:09;;;;;;;;;;;;;;;4.36;80.22;100613.48;1961988;73;20128;-40
2023/02/22 04:27:37;;;;;;;;;;;;;;;4.36;80.36;100618.70;1953442;73;20112;-42
2023/02/22 04:30:06;;;;;;;;;;;;;;;4.34;80.42;100632.20;1953586;73;20139;-39
2023/02/22 04:32:35;;;;;;;;;;;;;;;4.33;80.50;100627.41;1953507;73;20104;-39
2023/02/22 04:35:04;;;;;;;;;;;;;;;4.35;80.56;100628.69;1953539;73;20159;-39
2023/02/22 04:37:33;;;;;;;;;;;;;;;4.39;80.59;100632.55;1952006;73;20398;-39
2023/02/22 04:40:07;;;;;;;;;;;;;;;4.49;80.58;100636.31;1953376;73;20187;-39
2023/02/22 04:42:36;;;;;;;;;;;;;;;4.56;80.54;100632.28;1953437;73;20371;-39
2023/02/22 04:45:06;;;;;;;;;;;;;;;4.64;80.53;100638.22;1953605;73;20120;-39
2023/02/22 04:47:36;;;;;;;;;;;;;;;4.71;80.51;100644.20;1953501;73;20105;-40
2023/02/22 04:50:05;;;;;;;;;;;;;;;4.82;80.41;100651.86;1953507;73;20386;-42
2023/02/22 04:52:33;;;;;;;;;;;;;;;5.01;80.38;100650.64;1953427;73;20401;-43
2023/02/22 04:55:01;;;;;;;;;;;;;;;5.36;80.00;100643.92;1953532;73;20217;-39
2023/02/22 04:57:29;;;;;;;;;;;;;;;5.67;79.94;100652.92;1953481;73;20108;-39
2023/02/22 04:59:57;;;;;;;;;;;;;;;5.89;79.75;100655.50;1953497;73;20116;-44
2023/02/22 05:02:25;;;;;;;;;;;;;;;6.08;79.14;100662.98;1953528;73;20139;-41
2023/02/22 05:04:53;;;;;;;;;;;;;;;6.25;79.48;100671.30;1953667;73;20147;-41
2023/02/22 05:07:21;;;;;;;;;;;;;;;6.50;79.24;100661.15;1953300;73;20143;-42
2023/02/22 05:09:48;;;;;;;;;;;;;;;6.84;78.62;100687.84;1953535;73;20147;-39
2023/02/22 05:12:16;;;;;;;;;;;;;;;7.23;78.66;100694.27;1953497;73;20100;-40
2023/02/22 05:14:44;;;;;;;;;;;;;;;7.70;78.55;100705.22;1953448;73;20390;-40
2023/02/22 05:17:13;;;;;;;;;;;;;;;8.10;78.81;100705.41;1953609;73;20436;-40
2023/02/22 05:19:40;;;;;;;;;;;;;;;8.39;78.69;100701.06;1963061;73;20189;-41
2023/02/22 05:22:08;;;;;;;;;;;;;;;8.59;78.57;100699.60;1965076;73;20104;-39
2023/02/22 05:24:37;;;;;;;;;;;;;;;8.67;76.67;100697.61;1965110;73;20150;-40
2023/02/22 05:27:05;;;;;;;;;;;;;;;8.81;76.62;100711.13;1965097;73;20111;-39
2023/02/22 05:29:32;;;;;;;;;;;;;;;9.03;76.55;100722.26;1956555;73;20125;-40
2023/02/22 05:32:01;;;;;;;;;;;;;;;9.25;76.54;100731.13;1955184;73;20104;-40
2023/02/22 05:34:29;;;;;;;;;;;;;;;9.50;76.47;100736.89;1955022;73;20116;-41
2023/02/22 05:36:57;;;;;;;;;;;;;;;9.78;76.09;100749.91;1955156;73;20138;-41
2023/02/22 05:39:25;;;;;;;;;;;;;;;10.01;76.32;100760.05;1959427;73;20116;-40
2023/02/22 05:41:52;;;;;;;;;;;;;;;10.27;75.33;100772.25;1965100;73;20528;-40
2023/02/22 05:44:20;;;;;;;;;;;;;;;10.47;74.82;100774.63;1965119;73;20142;-40
2023/02/22 05:46:48;;;;;;;;;;;;;;;10.61;74.17;100771.02;1965103;73;20112;-41
2023/02/22 05:49:16;;;;;;;;;;;;;;;11.00;74.23;100780.89;1961248;73;20143;-40
2023/02/22 05:51:44;;;;;;;;;;;;;;;11.51;74.03;100783.63;1952980;73;20100;-42
2023/02/22 05:54:11;;;;;;;;;;;;;;;11.93;72.92;100785.38;1953589;73;20194;-43
2023/02/22 05:56:39;;;;;;;;;;;;;;;12.10;71.31;100773.22;1953591;73;20112;-43
2023/02/22 05:59:07;;;;;;;;;;;;;;;12.58;70.89;100778.94;1953716;73;20143;-43
2023/02/22 06:01:35;;;;;;;;;;;;;;;12.88;67.05;100779.30;1955116;73;20112;-42
2023/02/22 06:04:02;;;;;;;;;;;;;;;13.20;65.39;100780.83;1958836;72;20112;-41
2023/02/22 06:06:30;;;;;;;;;;;;;;;13.62;63.93;100784.46;1965331;73;20144;-41
2023/02/22 06:08:58;;;;;;;;;;;;;;;13.19;62.85;100781.77;1965382;73;20401;-41
2023/02/22 06:11:26;;;;;;;;;;;;;;;12.40;63.81;100788.59;1963908;73;20120;-39
2023/02/22 06:13:53;;;;;;;;;;;;;;;12.78;63.21;100780.65;1963512;73;20146;-43
2023/02/22 06:16:22;;;;;;;;;;;;;;;13.40;64.67;100789.98;1963502;73;20143;-39
2023/02/22 06:18:50;;;;;;;;;;;;;;;13.14;62.71;100792.09;1963692;73;20120;-39
2023/02/22 06:21:18;;;;;;;;;;;;;;;13.43;63.41;100799.09;1963542;73;20116;-39
2023/02/22 06:23:45;;;;;;;;;;;;;;;14.00;62.92;100803.25;1963557;73;20112;-40
2023/02/22 06:26:14;;;;;;;;;;;;;;;14.38;62.73;100808.32;1963559;73;20146;-40
2023/02/22 06:28:42;;;;;;;;;;;;;;;15.10;62.51;100813.64;1963433;73;20119;-39
2023/02/22 06:31:10;;;;;;;;;;;;;;;15.74;61.61;100818.37;1962418;73;20210;-40
2023/02/22 06:33:39;;;;;;;;;;;;;;;15.78;61.80;100819.89;1963582;73;20112;-38
2023/02/22 06:36:07;;;;;;;;;;;;;;;15.03;62.17;100823.75;1963526;73;20154;-42
2023/02/22 06:38:35;;;;;;;;;;;;;;;14.56;62.60;100825.87;1963537;73;20155;-44
2023/02/22 06:41:03;;;;;;;;;;;;;;;14.51;61.76;100819.95;1963476;73;20120;-43
2023/02/22 06:43:30;;;;;;;;;;;;;;;14.76;58.92;100817.34;1962203;73;20132;-44
2023/02/22 06:45:58;;;;;;;;;;;;;;;14.35;59.94;100817.30;1980268;72;20143;-42
2023/02/22 06:48:26;;;;;;;;;;;;;;;13.99;60.59;100822.73;1984861;72;20142;-44
2023/02/22 06:50:53;;;;;;;;;;;;;;;13.68;61.20;100832.23;1963963;73;20119;-38
2023/02/22 06:53:21;;;;;;;;;;;;;;;13.32;61.81;100842.41;1965322;73;20400;-38
2023/02/22 06:55:49;;;;;;;;;;;;;;;14.22;60.23;100840.93;1965068;73;20108;-37
2023/02/22 06:58:17;;;;;;;;;;;;;;;13.90;60.15;100839.47;1965189;73;20142;-38
2023/02/22 07:00:44;;;;;;;;;;;;;;;13.65;58.77;100850.94;1965870;73;20116;-38
2023/02/22 07:03:13;;;;;;;;;;;;;;;13.22;60.12;100843.73;1965856;73;20159;-38
2023/02/22 07:05:41;;;;;;;;;;;;;;;12.84;60.79;100851.72;1956208;72;20108;-38
2023/02/22 07:08:08;;;;;;;;;;;;;;;13.07;60.61;100848.83;1953142;73;20146;-38
2023/02/22 07:10:37;;;;;;;;;;;;;;;14.01;59.26;100845.53;1955238;73;20151;-40
2023/02/22 07:13:06;;;;;;;;;;;;;;;14.05;59.46;100847.11;1955362;73;20112;-40
2023/02/22 07:15:34;;;;;;;;;;;;;;;14.34;58.70;100843.86;1955294;73;20378;-41
2023/02/22 07:18:02;;;;;;;;;;;;;;;14.83;57.84;100842.58;1955387;73;20167;-40
2023/02/22 07:20:31;;;;;;;;;;;;;;;15.71;57.98;100835.76;1965304;73;20401;-40
2023/02/22 07:22:59;;;;;;;;;;;;;;;15.57;56.93;100847.69;1965559;73;20884;-38
2023/02/22 07:25:26;;;;;;;;;;;;;;;15.54;57.28;100842.55;1965171;73;20100;-39
2023/02/22 07:27:54;;;;;;;;;;;;;;;15.04;57.61;100849.31;1965181;73;20157;-39
2023/02/22 07:30:29;;;;;;;;;;;;;;;14.40;58.73;100853.64;1955909;73;20201;-39
2023/02/22 07:32:56;;;;;;;;;;;;;;;13.72;58.74;100858.92;1955165;73;20117;-38
2023/02/22 07:35:25;;;;;;;;;;;;;;;13.09;59.27;100858.86;1955079;73;20140;-39
2023/02/22 07:37:53;;;;;;;;;;;;;;;12.51;60.14;100874.79;1954133;73;20146;-39
2023/02/22 07:40:21;;;;;;;;;;;;;;;12.09;61.03;100874.43;1960902;73;20108;-40
2023/02/22 07:42:59;;;;;;;;;;;;;;;11.79;61.33;100881.37;1952941;73;20117;-39
2023/02/22 07:45:32;;;;;;;;;;;;;;;11.47;59.67;100884.89;1952884;73;20391;-42
2023/02/22 07:48:00;;;;;;;;;;;;;;;11.12;61.20;100889.78;1952848;73;20496;-40
2023/02/22 07:50:32;;;;;;;;;;;;;;;10.85;59.74;100893.47;1954245;73;20120;-40
2023/02/22 07:53:01;;;;;;;;;;;;;;;10.59;60.89;100899.24;1953174;73;20112;-39
2023/02/22 07:55:30;;;;;;;;;;;;;;;10.41;61.27;100900.30;1952839;73;20113;-38
2023/02/22 07:57:59;;;;;;;;;;;;;;;10.32;61.51;100905.03;1952987;73;20140;-38
2023/02/22 08:00:28;;;;;;;;;;;;;;;10.27;61.92;100906.46;1952940;72;20215;-40
2023/02/22 08:02:56;;;;;;;;;;;;;;;10.29;61.95;100908.61;1960854;72;20167;-38
2023/02/22 08:05:26;;;;;;;;;;;;;;;10.21;59.86;100908.85;1957844;72;20362;-40
2023/02/22 08:07:54;;;;;;;;;;;;;;;10.14;61.40;100914.39;1953842;73;20398;-39
2023/02/22 08:10:23;;;;;;;;;;;;;;;10.15;61.73;100913.48;1950856;73;20162;-38
2023/02/22 08:12:51;;;;;;;;;;;;;;;10.21;60.55;100914.12;1928349;73;20152;-41
2023/02/22 08:15:20;;;;;;;;;;;;;;;10.23;61.79;100920.19;1929890;74;20114;-39
2023/02/22 08:17:48;;;;;;;;;;;;;;;10.31;62.07;100927.88;1929781;74;20138;-39
2023/02/22 08:20:17;;;;;;;;;;;;;;;10.41;61.92;100929.25;1929338;74;20381;-39
2023/02/22 08:22:44;;;;;;;;;;;;;;;10.53;61.98;100933.23;1927870;74;20122;-42
2023/02/22 08:25:14;;;;;;;;;;;;;;;10.72;61.71;100936.06;1954683;73;20161;-44
2023/02/22 08:27:42;;;;;;;;;;;;;;;10.84;61.35;100933.88;1929316;73;20207;-45
2023/02/22 08:30:12;;;;;;;;;;;;;;;10.91;61.45;100933.59;1931807;73;20249;-39
2023/02/22 08:32:39;;;;;;;;;;;;;;;10.90;60.60;100937.59;1952336;71;20102;-42
2023/02/22 08:35:08;;;;;;;;;;;;;;;11.08;61.25;100942.17;1926438;74;20152;-40
2023/02/22 08:37:35;;;;;;;;;;;;;;;11.49;60.79;100944.12;1958072;73;20119;-41
2023/02/22 08:40:03;;;;;;;;;;;;;;;11.72;60.86;100947.18;1972008;73;20116;-42
2023/02/22 08:42:31;;;;;;;;;;;;;;;11.89;60.83;100947.33;1972210;73;20143;-40
2023/02/22 08:44:59;;;;;;;;;;;;;;;12.38;60.30;100948.89;1972231;73;20116;-41
2023/02/22 08:47:28;;;;;;;;;;;;;;;12.78;59.22;100949.31;1972160;73;20099;-40
2023/02/22 08:49:55;;;;;;;;;;;;;;;13.46;58.14;100945.75;1960827;73;20116;-41
2023/02/22 08:52:23;;;;;;;;;;;;;;;13.90;54.49;100954.61;1994344;71;20143;-38
2023/02/22 08:54:51;;;;;;;;;;;;;;;14.12;56.28;100949.58;1956639;72;20217;-38
2023/02/22 08:57:20;;;;;;;;;;;;;;;14.13;56.02;100949.98;1899085;74;20116;-37
2023/02/22 08:59:48;;;;;;;;;;;;;;;13.53;56.29;100954.70;1930809;73;20152;-37
2023/02/22 09:02:17;;;;;;;;;;;;;;;12.90;56.71;100954.49;1929152;73;20237;-38
2023/02/22 09:04:45;;;;;;;;;;;;;;;12.36;56.35;100955.55;1926529;73;20248;-41
2023/02/22 09:07:12;;;;;;;;;;;;;;;11.79;57.29;100947.33;1967744;73;20143;-39
2023/02/22 09:09:42;;;;;;;;;;;;;;;11.55;58.03;100959.26;1972116;73;20120;-45
2023/02/22 09:12:10;;;;;;;;;;;;;;;11.59;58.59;100960.00;1972293;73;20385;-45
2023/02/22 09:14:38;;;;;;;;;;;;;;;11.47;58.23;100961.36;1972176;73;20108;-49
2023/02/22 09:17:06;;;;;;;;;;;;;;;11.40;58.18;100970.42;1972095;73;20119;-45
2023/02/22 09:19:33;;;;;;;;;;;;;;;11.16;57.36;100954.62;1972054;73;20112;-47
2023/02/22 09:22:01;;;;;;;;;;;;;;;10.91;57.48;100962.58;1972053;73;20116;-44
2023/02/22 09:24:29;;;;;;;;;;;;;;;10.93;57.67;100967.79;1972277;73;20392;-43
2023/02/22 09:26:58;;;;;;;;;;;;;;;10.67;58.26;100966.11;1925087;73;20119;-40
2023/02/22 09:29:27;;;;;;;;;;;;;;;10.45;58.05;100969.95;1923522;75;20145;-39
2023/02/22 09:31:55;;;;;;;;;;;;;;;10.29;58.47;100970.46;1936693;72;20100;-43
2023/02/22 09:34:28;;;;;;;;;;;;;;;10.36;58.93;100969.81;1965099;73;20186;-40
2023/02/22 09:36:53;;;;;;;;;;;;;;;10.65;59.05;100968.80;1964409;73;20155;-44
2023/02/22 09:39:20;;;;;;;;;;;;;;;10.88;58.90;100974.56;1965044;73;20150;-43
2023/02/22 09:41:50;;;;;;;;;;;;;;;11.00;58.93;100976.72;1965021;73;20210;-40
2023/02/22 09:44:19;;;;;;;;;;;;;;;11.09;59.02;100972.05;1964558;73;20111;-40
2023/02/22 09:46:49;;;;;;;;;;;;;;;11.18;58.86;100973.87;1964907;73;20116;-41
2023/02/22 09:49:21;;;;;;;;;;;;;;;11.18;58.97;100965.96;1965215;73;20415;-41
2023/02/22 09:51:57;;;;;;;;;;;;;;;11.22;58.42;100965.39;1963876;72;20116;-40
2023/02/22 09:54:29;;;;;;;;;;;;;;;11.73;57.84;100964.70;1964707;73;20112;-43
2023/02/22 09:56:58;;;;;;;;;;;;;;;11.80;57.46;100959.58;1930072;73;20148;-44
2023/02/22 09:59:30;;;;;;;;;;;;;;;11.76;57.87;100961.95;1923503;75;20182;-40
2023/02/22 10:02:05;;;;;;;;;;;;;;;11.63;57.91;100963.38;1923468;75;20110;-42
2023/02/22 10:04:33;;;;;;;;;;;;;;;11.47;57.75;100961.36;1922778;74;20142;-43
2023/02/22 10:07:04;;;;;;;;;;;;;;;11.70;58.29;100955.62;1917663;75;20420;-41
2023/02/22 10:09:36;;;;;;;;;;;;;;;11.94;58.35;100952.47;1913997;75;20106;-42
2023/02/22 10:12:07;;;;;;;;;;;;;;;11.92;58.04;100951.20;1913934;75;20177;-43
2023/02/22 10:14:40;;;;;;;;;;;;;;;12.05;58.26;100945.43;1956406;72;20114;-41
2023/02/22 10:17:09;;;;;;;;;;;;;;;12.32;58.36;100949.54;1994492;72;20101;-44
2023/02/22 10:19:38;;;;;;;;;;;;;;;12.60;57.85;100954.94;1993168;72;20102;-39
2023/02/22 10:22:10;;;;;;;;;;;;;;;12.71;57.93;100949.19;1987810;72;20227;-39
2023/02/22 10:24:40;;;;;;;;;;;;;;;12.57;58.19;100955.06;1954707;73;20116;-39
2023/02/22 10:27:09;;;;;;;;;;;;;;;12.20;57.27;100965.05;1910069;75;20142;-44
2023/02/22 10:29:38;;;;;;;;;;;;;;;11.58;57.25;100957.83;1957721;72;20144;-40
2023/02/22 10:32:07;;;;;;;;;;;;;;;11.02;57.36;100962.18;1928683;73;20107;-45
2023/02/22 10:34:40;;;;;;;;;;;;;;;10.75;58.48;100960.09;1964964;72;20116;-43
2023/02/22 10:37:15;;;;;;;;;;;;;;;10.60;58.57;100966.34;1976202;72;20360;-42
2023/02/22 10:39:43;;;;;;;;;;;;;;;10.45;57.72;100964.69;1991256;72;20157;-43
2023/02/22 10:42:12;;;;;;;;;;;;;;;10.21;57.56;100967.22;1975903;72;20106;-45
2023/02/22 10:44:43;;;;;;;;;;;;;;;9.99;57.96;100973.18;1960702;72;20405;-42
2023/02/22 10:47:13;;;;;;;;;;;;;;;9.74;58.25;100970.51;1961175;72;20120;-44
2023/02/22 10:49:46;;;;;;;;;;;;;;;9.51;57.76;100977.78;1961385;72;20112;-38
2023/02/22 10:52:25;;;;;;;;;;;;;;;9.37;58.54;100978.66;1954366;73;20120;-39
2023/02/22 10:54:54;;;;;;;;;;;;;;;9.22;58.60;100978.66;1955338;73;20367;-39
2023/02/22 10:57:26;;;;;;;;;;;;;;;9.00;58.38;100977.11;1921443;75;20173;-39
2023/02/22 10:59:56;;;;;;;;;;;;;;;9.03;57.53;100986.22;1921411;75;20189;-39
2023/02/22 11:02:34;;;;;;;;;;;;;;;8.92;57.98;100983.05;1921382;75;20161;-39
2023/02/22 11:05:03;;;;;;;;;;;;;;;8.94;58.45;100982.09;1921382;75;20114;-39
2023/02/22 11:07:32;;;;;;;;;;;;;;;8.96;58.89;100988.61;1921259;74;20115;-39
2023/02/22 11:10:01;;;;;;;;;;;;;;;8.87;58.69;100994.97;1921319;75;20419;-40
2023/02/22 11:12:30;;;;;;;;;;;;;;;8.81;58.71;100998.64;1920023;75;20522;-41
2023/02/22 11:15:00;;;;;;;;;;;;;;;8.83;59.10;100998.59;1962643;72;20110;-40
2023/02/22 11:17:29;;;;;;;;;;;;;;;8.82;59.16;101004.31;1984077;72;20114;-41
2023/02/22 11:19:58;;;;;;;;;;;;;;;8.86;58.35;100996.75;1987943;72;20110;-38
2023/02/22 11:22:29;;;;;;;;;;;;;;;8.69;58.58;101001.62;1987679;72;20177;-41
2023/02/22 11:25:06;;;;;;;;;;;;;;;8.57;58.68;101001.47;1983326;72;20270;-40
2023/02/22 11:27:45;;;;;;;;;;;;;;;8.47;59.13;101006.58;1955131;73;20100;-41
2023/02/22 11:30:26;;;;;;;;;;;;;;;8.47;59.21;101012.67;1955207;73;20116;-42
2023/02/22 11:33:14;;;;;;;;;;;;;;;8.37;59.72;101007.20;1955096;73;20147;-42
2023/02/22 11:35:52;;;;;;;;;;;;;;;8.37;59.91;101012.91;1955332;73;20100;-42
2023/02/22 11:38:24;;;;;;;;;;;;;;;8.47;59.63;101013.98;1955174;73;20104;-42
2023/02/22 11:41:10;;;;;;;;;;;;;;;8.53;59.57;101016.05;1955202;73;20142;-40
2023/02/22 11:43:38;;;;;;;;;;;;;;;8.64;59.94;101023.19;1955189;73;20116;-39
2023/02/22 11:46:12;;;;;;;;;;;;;;;9.10;60.07;101014.50;1955092;73;20108;-39
2023/02/22 11:48:48;;;;;;;;;;;;;;;9.46;59.10;101020.42;1955189;73;20120;-38
2023/02/22 11:51:23;;;;;;;;;;;;;;;9.45;58.48;101025.30;1943509;72;20142;-38
2023/02/22 11:54:02;;;;;;;;;;;;;;;9.28;58.75;101020.08;1955144;73;20138;-39
2023/02/22 11:56:38;;;;;;;;;;;;;;;9.17;58.60;101022.63;1955168;73;20112;-40
2023/02/22 11:59:10;;;;;;;;;;;;;;;9.03;59.05;101032.19;1955225;73;20142;-41
2023/02/22 12:01:39;;;;;;;;;;;;;;;8.82;58.92;101035.81;1957467;73;20115;-39
2023/02/22 12:04:15;;;;;;;;;;;;;;;8.60;59.23;101037.30;1965414;71;20112;-40
2023/02/22 12:06:44;;;;;;;;;;;;;;;8.39;59.13;101040.86;1965372;73;20116;-42
2023/02/22 12:09:13;;;;;;;;;;;;;;;8.30;59.55;101039.31;1972293;72;20374;-43
2023/02/22 12:11:49;;;;;;;;;;;;;;;8.27;59.95;101039.84;1971214;73;20115;-41
2023/02/22 12:14:32;;;;;;;;;;;;;;;8.23;60.13;101050.00;1897856;75;20150;-39
2023/02/22 12:17:05;;;;;;;;;;;;;;;8.09;59.54;101060.81;1911933;74;20190;-39
2023/02/22 12:19:43;;;;;;;;;;;;;;;8.00;60.01;101065.81;1929362;74;20138;-40
2023/02/22 12:22:18;;;;;;;;;;;;;;;8.00;59.95;101067.13;1930947;73;20153;-41
2023/02/22 12:24:48;;;;;;;;;;;;;;;7.96;60.21;101065.47;1932675;73;20162;-43
2023/02/22 12:27:19;;;;;;;;;;;;;;;8.09;60.10;101065.59;1940016;73;20427;-38
2023/02/22 12:29:48;;;;;;;;;;;;;;;8.34;59.93;101070.27;1924132;74;20251;-38
2023/02/22 12:32:29;;;;;;;;;;;;;;;8.50;60.00;101074.28;1942107;73;20116;-38
2023/02/22 12:34:58;;;;;;;;;;;;;;;8.61;58.71;101075.33;1975543;71;20111;-38
2023/02/22 12:37:44;;;;;;;;;;;;;;;8.64;59.40;101083.56;1930867;71;20118;-40
2023/02/22 12:40:22;;;;;;;;;;;;;;;8.57;58.85;101084.61;1938377;73;20116;-38
2023/02/22 12:42:54;;;;;;;;;;;;;;;8.59;59.09;101090.69;1959437;72;20104;-38
2023/02/22 12:45:25;;;;;;;;;;;;;;;8.58;58.88;101092.45;1933573;73;20102;-38
2023/02/22 12:47:54;;;;;;;;;;;;;;;8.65;58.63;101098.39;1928538;74;20387;-40
2023/02/22 12:50:23;;;;;;;;;;;;;;;8.61;58.53;101102.89;1928101;73;20118;-40
2023/02/22 12:53:11;;;;;;;;;;;;;;;8.57;57.84;101105.61;1929019;73;20118;-40
2023/02/22 12:55:44;;;;;;;;;;;;;;;8.45;58.15;101112.89;1929267;74;20114;-36
2023/02/22 12:58:24;;;;;;;;;;;;;;;8.31;57.88;101108.38;1927863;74;20256;-39